PLF040 EPDE-EPKK
Flight info
| Callsign | PLF040 |
|---|---|
| Flight time | 0h 41m |
| Altitude | 14000 |
| Route | NETAB DCT ULGOS DCT KUKAM |
| Aircraft | C295/M-SDFGIRY/S |
Departure
| Time | 2026-04-17 09:49 |
|---|---|
| Airport | Deblin Military Air Base (EPDE) |
Arrival
| Time | 2026-04-17 10:31 |
|---|---|
| Airport | Kraków John Paul II International Airport (EPKK) |
| Time | Latitude | Longitude | Altitude | Speed | Heading |
|---|---|---|---|---|---|
| 2026-04-17 09:33 | 51.55338 | 21.87418 | 382 ft | 0 kts | 171° |
| 2026-04-17 09:42 | 51.55335 | 21.87418 | 382 ft | 4 kts | 171° |
| 2026-04-17 09:42 | 51.55316 | 21.87429 | 382 ft | 1 kts | 114° |
| 2026-04-17 09:42 | 51.55320 | 21.87504 | 382 ft | 11 kts | 84° |
| 2026-04-17 09:43 | 51.55330 | 21.87610 | 382 ft | 11 kts | 83° |
| 2026-04-17 09:43 | 51.55348 | 21.87659 | 382 ft | 2 kts | 18° |
| 2026-04-17 09:43 | 51.55368 | 21.87669 | 382 ft | 4 kts | 16° |
| 2026-04-17 09:43 | 51.55396 | 21.87682 | 382 ft | 3 kts | 25° |
| 2026-04-17 09:44 | 51.55412 | 21.87721 | 382 ft | 5 kts | 81° |
| 2026-04-17 09:44 | 51.55384 | 21.87806 | 382 ft | 13 kts | 121° |
| 2026-04-17 09:44 | 51.55328 | 21.87956 | 382 ft | 18 kts | 121° |
| 2026-04-17 09:44 | 51.55260 | 21.88141 | 382 ft | 20 kts | 122° |
| 2026-04-17 09:45 | 51.55186 | 21.88342 | 382 ft | 22 kts | 120° |
| 2026-04-17 09:45 | 51.55107 | 21.88557 | 382 ft | 23 kts | 119° |
| 2026-04-17 09:45 | 51.55022 | 21.88783 | 382 ft | 24 kts | 119° |
| 2026-04-17 09:45 | 51.54938 | 21.89012 | 382 ft | 23 kts | 117° |
| 2026-04-17 09:46 | 51.54854 | 21.89235 | 382 ft | 23 kts | 125° |
| 2026-04-17 09:46 | 51.54768 | 21.89467 | 382 ft | 24 kts | 121° |
| 2026-04-17 09:46 | 51.54681 | 21.89699 | 382 ft | 24 kts | 121° |
| 2026-04-17 09:46 | 51.54595 | 21.89930 | 382 ft | 24 kts | 119° |
| 2026-04-17 09:47 | 51.54509 | 21.90163 | 382 ft | 24 kts | 118° |
| 2026-04-17 09:47 | 51.54436 | 21.90359 | 382 ft | 19 kts | 121° |
| 2026-04-17 09:47 | 51.54455 | 21.90466 | 382 ft | 8 kts | 31° |
| 2026-04-17 09:47 | 51.54499 | 21.90521 | 382 ft | 8 kts | 39° |
| 2026-04-17 09:48 | 51.54550 | 21.90570 | 381 ft | 8 kts | 24° |
| 2026-04-17 09:48 | 51.54599 | 21.90575 | 380 ft | 5 kts | 343° |
| 2026-04-17 09:48 | 51.54608 | 21.90564 | 380 ft | 7 kts | 318° |
| 2026-04-17 09:48 | 51.54618 | 21.90540 | 380 ft | 0 kts | 298° |
| 2026-04-17 09:49 | 51.54682 | 21.90374 | 381 ft | 55 kts | 303° |
| 2026-04-17 09:49 | 51.55006 | 21.89508 | 391 ft | 122 kts | 298° |
| 2026-04-17 09:49 | 51.55442 | 21.88169 | 750 ft | 148 kts | 298° |
| 2026-04-17 09:49 | 51.55906 | 21.86673 | 1052 ft | 149 kts | 300° |
| 2026-04-17 09:50 | 51.56182 | 21.84962 | 1014 ft | 180 kts | 268° |
| 2026-04-17 09:50 | 51.55673 | 21.83181 | 1417 ft | 172 kts | 240° |
| 2026-04-17 09:50 | 51.55146 | 21.81494 | 1782 ft | 164 kts | 264° |
| 2026-04-17 09:50 | 51.55422 | 21.79828 | 2081 ft | 157 kts | 307° |
| 2026-04-17 09:51 | 51.55769 | 21.78191 | 2419 ft | 166 kts | 265° |
| 2026-04-17 09:51 | 51.55125 | 21.76625 | 2851 ft | 181 kts | 213° |
| 2026-04-17 09:51 | 51.53869 | 21.76334 | 3383 ft | 191 kts | 167° |
| 2026-04-17 09:51 | 51.52782 | 21.77496 | 4091 ft | 191 kts | 122° |
| 2026-04-17 09:52 | 51.52397 | 21.79470 | 4745 ft | 186 kts | 90° |
| 2026-04-17 09:52 | 51.52200 | 21.81568 | 5397 ft | 192 kts | 96° |
| 2026-04-17 09:52 | 51.51882 | 21.83681 | 6103 ft | 197 kts | 102° |
| 2026-04-17 09:52 | 51.51426 | 21.85787 | 6735 ft | 202 kts | 109° |
| 2026-04-17 09:53 | 51.50836 | 21.87852 | 7335 ft | 207 kts | 122° |
| 2026-04-17 09:53 | 51.49668 | 21.89184 | 7864 ft | 210 kts | 167° |
| 2026-04-17 09:53 | 51.48266 | 21.89079 | 8408 ft | 200 kts | 209° |
| 2026-04-17 09:53 | 51.47285 | 21.87680 | 8943 ft | 185 kts | 245° |
| 2026-04-17 09:54 | 51.46598 | 21.85919 | 9487 ft | 187 kts | 245° |
| 2026-04-17 09:54 | 51.45888 | 21.84166 | 10028 ft | 188 kts | 245° |
| 2026-04-17 09:54 | 51.45144 | 21.82419 | 10521 ft | 191 kts | 243° |
| 2026-04-17 09:54 | 51.44346 | 21.80702 | 10990 ft | 193 kts | 240° |
| 2026-04-17 09:55 | 51.43498 | 21.79006 | 11479 ft | 196 kts | 239° |
| 2026-04-17 09:55 | 51.42624 | 21.77321 | 11953 ft | 197 kts | 239° |
| 2026-04-17 09:55 | 51.41749 | 21.75650 | 12417 ft | 199 kts | 238° |
| 2026-04-17 09:55 | 51.40844 | 21.73951 | 12901 ft | 201 kts | 238° |
| 2026-04-17 09:56 | 51.39923 | 21.72252 | 13356 ft | 203 kts | 238° |
| 2026-04-17 09:56 | 51.39005 | 21.70527 | 13799 ft | 204 kts | 239° |
| 2026-04-17 09:56 | 51.38093 | 21.68774 | 14213 ft | 206 kts | 239° |
| 2026-04-17 09:56 | 51.37174 | 21.67003 | 14587 ft | 208 kts | 239° |
| 2026-04-17 09:57 | 51.36236 | 21.65196 | 14710 ft | 222 kts | 239° |
| 2026-04-17 09:57 | 51.35201 | 21.63143 | 14438 ft | 249 kts | 239° |
| 2026-04-17 09:57 | 51.34073 | 21.60935 | 14304 ft | 262 kts | 237° |
| 2026-04-17 09:57 | 51.32887 | 21.58673 | 14241 ft | 267 kts | 237° |
| 2026-04-17 09:58 | 51.31685 | 21.56385 | 14217 ft | 270 kts | 237° |
| 2026-04-17 09:58 | 51.30471 | 21.54080 | 14197 ft | 272 kts | 237° |
| 2026-04-17 09:58 | 51.29239 | 21.51777 | 14187 ft | 273 kts | 236° |
| 2026-04-17 09:58 | 51.27995 | 21.49484 | 14183 ft | 273 kts | 236° |
| 2026-04-17 09:59 | 51.26766 | 21.47174 | 14183 ft | 273 kts | 237° |
| 2026-04-17 09:59 | 51.25579 | 21.44907 | 14177 ft | 273 kts | 237° |
| 2026-04-17 09:59 | 51.24363 | 21.42596 | 14178 ft | 272 kts | 237° |
| 2026-04-17 09:59 | 51.23133 | 21.40261 | 14175 ft | 272 kts | 237° |
| 2026-04-17 10:00 | 51.21910 | 21.37952 | 14173 ft | 271 kts | 237° |
| 2026-04-17 10:00 | 51.20876 | 21.35507 | 14177 ft | 264 kts | 249° |
| 2026-04-17 10:00 | 51.20093 | 21.32874 | 14182 ft | 263 kts | 253° |
| 2026-04-17 10:00 | 51.19358 | 21.30206 | 14172 ft | 263 kts | 252° |
| 2026-04-17 10:01 | 51.18605 | 21.27539 | 14183 ft | 263 kts | 252° |
| 2026-04-17 10:01 | 51.17814 | 21.24899 | 14177 ft | 264 kts | 251° |
| 2026-04-17 10:01 | 51.17011 | 21.22268 | 14182 ft | 264 kts | 251° |
| 2026-04-17 10:01 | 51.16205 | 21.19647 | 14185 ft | 264 kts | 250° |
| 2026-04-17 10:02 | 51.15383 | 21.17024 | 14186 ft | 264 kts | 250° |
| 2026-04-17 10:02 | 51.14558 | 21.14410 | 14178 ft | 265 kts | 250° |
| 2026-04-17 10:02 | 51.13747 | 21.11782 | 14188 ft | 264 kts | 250° |
| 2026-04-17 10:02 | 51.12937 | 21.09153 | 14182 ft | 264 kts | 250° |
| 2026-04-17 10:03 | 51.12139 | 21.06559 | 14187 ft | 265 kts | 250° |
| 2026-04-17 10:03 | 51.11330 | 21.03926 | 14182 ft | 265 kts | 250° |
| 2026-04-17 10:03 | 51.10518 | 21.01293 | 14183 ft | 264 kts | 250° |
| 2026-04-17 10:03 | 51.09708 | 20.98672 | 14179 ft | 264 kts | 250° |
| 2026-04-17 10:04 | 51.08898 | 20.96050 | 14187 ft | 263 kts | 250° |
| 2026-04-17 10:04 | 51.08091 | 20.93432 | 14181 ft | 264 kts | 250° |
| 2026-04-17 10:04 | 51.07281 | 20.90815 | 14185 ft | 264 kts | 250° |
| 2026-04-17 10:04 | 51.06469 | 20.88196 | 14183 ft | 264 kts | 250° |
| 2026-04-17 10:05 | 51.05659 | 20.85578 | 14182 ft | 264 kts | 250° |
| 2026-04-17 10:05 | 51.04843 | 20.82950 | 14178 ft | 264 kts | 250° |
| 2026-04-17 10:05 | 51.04030 | 20.80335 | 14182 ft | 264 kts | 250° |
| 2026-04-17 10:05 | 51.03214 | 20.77715 | 14181 ft | 264 kts | 250° |
| 2026-04-17 10:06 | 51.02409 | 20.75135 | 14178 ft | 264 kts | 250° |
| 2026-04-17 10:06 | 51.01597 | 20.72534 | 14177 ft | 263 kts | 250° |
| 2026-04-17 10:06 | 51.00782 | 20.69922 | 14179 ft | 263 kts | 250° |
| 2026-04-17 10:06 | 50.99971 | 20.67325 | 14177 ft | 262 kts | 250° |
| 2026-04-17 10:07 | 50.99161 | 20.64731 | 14188 ft | 262 kts | 250° |
| 2026-04-17 10:07 | 50.98348 | 20.62133 | 14190 ft | 263 kts | 250° |
| 2026-04-17 10:07 | 50.97532 | 20.59526 | 14185 ft | 264 kts | 250° |
| 2026-04-17 10:07 | 50.96712 | 20.56916 | 14178 ft | 264 kts | 250° |
| 2026-04-17 10:08 | 50.95892 | 20.54306 | 14184 ft | 264 kts | 249° |
| 2026-04-17 10:08 | 50.95070 | 20.51693 | 14185 ft | 264 kts | 249° |
| 2026-04-17 10:08 | 50.94249 | 20.49086 | 14186 ft | 264 kts | 249° |
| 2026-04-17 10:08 | 50.93427 | 20.46478 | 14180 ft | 264 kts | 250° |
| 2026-04-17 10:09 | 50.92606 | 20.43869 | 14181 ft | 264 kts | 249° |
| 2026-04-17 10:09 | 50.91795 | 20.41307 | 14185 ft | 263 kts | 249° |
| 2026-04-17 10:09 | 50.90974 | 20.38709 | 14183 ft | 263 kts | 249° |
| 2026-04-17 10:09 | 50.90151 | 20.36109 | 14187 ft | 263 kts | 249° |
| 2026-04-17 10:10 | 50.89329 | 20.33516 | 14185 ft | 263 kts | 249° |
| 2026-04-17 10:10 | 50.88508 | 20.30926 | 14187 ft | 263 kts | 249° |
| 2026-04-17 10:10 | 50.87688 | 20.28332 | 14185 ft | 263 kts | 249° |
| 2026-04-17 10:11 | 50.86040 | 20.23157 | 14183 ft | 263 kts | 249° |
| 2026-04-17 10:11 | 50.85216 | 20.20574 | 14181 ft | 263 kts | 249° |
| 2026-04-17 10:11 | 50.84395 | 20.17986 | 14188 ft | 263 kts | 249° |
| 2026-04-17 10:11 | 50.83571 | 20.15403 | 14184 ft | 262 kts | 249° |
| 2026-04-17 10:12 | 50.82747 | 20.12828 | 14184 ft | 262 kts | 249° |
| 2026-04-17 10:12 | 50.81921 | 20.10254 | 14187 ft | 262 kts | 249° |
| 2026-04-17 10:12 | 50.80877 | 20.07883 | 14185 ft | 272 kts | 227° |
| 2026-04-17 10:12 | 50.79188 | 20.06449 | 14185 ft | 281 kts | 205° |
| 2026-04-17 10:13 | 50.77268 | 20.05718 | 14189 ft | 287 kts | 192° |
| 2026-04-17 10:13 | 50.75265 | 20.05545 | 14188 ft | 289 kts | 185° |
| 2026-04-17 10:13 | 50.73276 | 20.05552 | 14191 ft | 290 kts | 184° |
| 2026-04-17 10:13 | 50.71254 | 20.05567 | 14188 ft | 290 kts | 184° |
| 2026-04-17 10:14 | 50.69230 | 20.05535 | 14187 ft | 290 kts | 186° |
| 2026-04-17 10:14 | 50.67212 | 20.05437 | 14181 ft | 291 kts | 186° |
| 2026-04-17 10:14 | 50.65169 | 20.05334 | 13951 ft | 299 kts | 186° |
| 2026-04-17 10:14 | 50.63037 | 20.05226 | 13377 ft | 311 kts | 186° |
| 2026-04-17 10:15 | 50.61614 | 20.05145 | 13014 ft | 306 kts | 186° |
| 2026-04-17 10:15 | 50.59504 | 20.05019 | 12484 ft | 301 kts | 186° |
| 2026-04-17 10:15 | 50.56757 | 20.04861 | 11798 ft | 295 kts | 186° |
| 2026-04-17 10:15 | 50.54722 | 20.04759 | 11321 ft | 291 kts | 186° |
| 2026-04-17 10:16 | 50.52710 | 20.04664 | 10840 ft | 287 kts | 186° |
| 2026-04-17 10:16 | 50.51366 | 20.04600 | 10524 ft | 285 kts | 186° |
| 2026-04-17 10:16 | 50.49391 | 20.04503 | 10053 ft | 283 kts | 186° |
| 2026-04-17 10:16 | 50.47432 | 20.04407 | 9570 ft | 280 kts | 185° |
| 2026-04-17 10:17 | 50.45503 | 20.04315 | 9295 ft | 271 kts | 185° |
| 2026-04-17 10:17 | 50.43672 | 20.04249 | 9246 ft | 258 kts | 185° |
| 2026-04-17 10:17 | 50.41860 | 20.04191 | 9211 ft | 263 kts | 185° |
| 2026-04-17 10:17 | 50.40005 | 20.04089 | 9200 ft | 269 kts | 186° |
| 2026-04-17 10:18 | 50.38148 | 20.03976 | 9211 ft | 273 kts | 186° |
| 2026-04-17 10:18 | 50.36237 | 20.03868 | 9199 ft | 275 kts | 186° |
| 2026-04-17 10:18 | 50.34324 | 20.03757 | 9153 ft | 278 kts | 186° |
| 2026-04-17 10:18 | 50.32395 | 20.03638 | 8969 ft | 275 kts | 186° |
| 2026-04-17 10:19 | 50.30499 | 20.03530 | 8787 ft | 269 kts | 186° |
| 2026-04-17 10:19 | 50.28647 | 20.03507 | 8603 ft | 265 kts | 179° |
| 2026-04-17 10:19 | 50.26838 | 20.04007 | 8420 ft | 262 kts | 170° |
| 2026-04-17 10:19 | 50.25069 | 20.04673 | 8248 ft | 260 kts | 169° |
| 2026-04-17 10:20 | 50.23317 | 20.05346 | 8072 ft | 258 kts | 168° |
| 2026-04-17 10:20 | 50.21734 | 20.06615 | 7894 ft | 261 kts | 138° |
| 2026-04-17 10:20 | 50.20798 | 20.09006 | 7712 ft | 261 kts | 104° |
| 2026-04-17 10:20 | 50.20787 | 20.11782 | 7546 ft | 253 kts | 72° |
| 2026-04-17 10:21 | 50.21345 | 20.14353 | 7392 ft | 249 kts | 67° |
| 2026-04-17 10:21 | 50.21911 | 20.16913 | 7219 ft | 250 kts | 69° |
| 2026-04-17 10:21 | 50.22397 | 20.19523 | 7065 ft | 251 kts | 71° |
| 2026-04-17 10:21 | 50.22825 | 20.22173 | 6906 ft | 252 kts | 73° |
| 2026-04-17 10:22 | 50.23195 | 20.24825 | 6743 ft | 253 kts | 75° |
| 2026-04-17 10:22 | 50.23546 | 20.27513 | 6571 ft | 250 kts | 76° |
| 2026-04-17 10:22 | 50.23463 | 20.30167 | 6387 ft | 250 kts | 108° |
| 2026-04-17 10:22 | 50.22462 | 20.32344 | 6206 ft | 248 kts | 143° |
| 2026-04-17 10:23 | 50.20901 | 20.33332 | 6045 ft | 240 kts | 174° |
| 2026-04-17 10:23 | 50.19243 | 20.33623 | 5875 ft | 239 kts | 177° |
| 2026-04-17 10:23 | 50.17592 | 20.33850 | 5712 ft | 233 kts | 185° |
| 2026-04-17 10:23 | 50.16115 | 20.33016 | 5523 ft | 225 kts | 222° |
| 2026-04-17 10:24 | 50.15217 | 20.31098 | 5380 ft | 219 kts | 247° |
| 2026-04-17 10:24 | 50.14645 | 20.28906 | 5216 ft | 217 kts | 255° |
| 2026-04-17 10:24 | 50.14328 | 20.26615 | 5055 ft | 217 kts | 263° |
| 2026-04-17 10:24 | 50.14109 | 20.24286 | 4891 ft | 217 kts | 265° |
| 2026-04-17 10:25 | 50.13888 | 20.21978 | 4730 ft | 218 kts | 263° |
| 2026-04-17 10:25 | 50.13589 | 20.19670 | 4565 ft | 217 kts | 260° |
| 2026-04-17 10:25 | 50.13231 | 20.17394 | 4397 ft | 215 kts | 258° |
| 2026-04-17 10:25 | 50.12870 | 20.15127 | 4211 ft | 215 kts | 259° |
| 2026-04-17 10:26 | 50.12532 | 20.12863 | 4050 ft | 214 kts | 260° |
| 2026-04-17 10:26 | 50.12221 | 20.10590 | 3871 ft | 214 kts | 261° |
| 2026-04-17 10:26 | 50.11916 | 20.08313 | 3713 ft | 215 kts | 261° |
| 2026-04-17 10:26 | 50.11606 | 20.06031 | 3604 ft | 214 kts | 260° |
| 2026-04-17 10:27 | 50.11289 | 20.03779 | 3554 ft | 211 kts | 260° |
| 2026-04-17 10:27 | 50.10977 | 20.01582 | 3520 ft | 202 kts | 260° |
| 2026-04-17 10:27 | 50.10691 | 19.99504 | 3380 ft | 187 kts | 260° |
| 2026-04-17 10:27 | 50.10431 | 19.97621 | 3142 ft | 169 kts | 260° |
| 2026-04-17 10:28 | 50.10193 | 19.95923 | 2924 ft | 148 kts | 260° |
| 2026-04-17 10:28 | 50.09991 | 19.94486 | 2736 ft | 131 kts | 260° |
| 2026-04-17 10:28 | 50.09796 | 19.93110 | 2552 ft | 130 kts | 261° |
| 2026-04-17 10:28 | 50.09613 | 19.91718 | 2383 ft | 132 kts | 261° |
| 2026-04-17 10:29 | 50.09422 | 19.90314 | 2198 ft | 131 kts | 261° |
| 2026-04-17 10:29 | 50.09228 | 19.88915 | 2016 ft | 134 kts | 259° |
| 2026-04-17 10:29 | 50.09031 | 19.87476 | 1804 ft | 137 kts | 259° |
| 2026-04-17 10:29 | 50.08827 | 19.86030 | 1591 ft | 136 kts | 258° |
| 2026-04-17 10:30 | 50.08621 | 19.84576 | 1416 ft | 140 kts | 257° |
| 2026-04-17 10:30 | 50.08413 | 19.83099 | 1212 ft | 137 kts | 257° |
| 2026-04-17 10:30 | 50.08204 | 19.81652 | 1009 ft | 134 kts | 255° |
| 2026-04-17 10:30 | 50.08030 | 19.80321 | 853 ft | 119 kts | 255° |
| 2026-04-17 10:31 | 50.07864 | 19.79203 | 797 ft | 69 kts | 257° |
| 2026-04-17 10:31 | 50.07814 | 19.78801 | 799 ft | 30 kts | 266° |
| 2026-04-17 10:31 | 50.07782 | 19.78524 | 798 ft | 22 kts | 262° |
| 2026-04-17 10:31 | 50.07753 | 19.78331 | 797 ft | 16 kts | 254° |
| 2026-04-17 10:32 | 50.07726 | 19.78167 | 795 ft | 15 kts | 258° |
| 2026-04-17 10:32 | 50.07689 | 19.78099 | 795 ft | 6 kts | 198° |
| 2026-04-17 10:32 | 50.07651 | 19.78094 | 796 ft | 5 kts | 176° |
| 2026-04-17 10:32 | 50.07586 | 19.78095 | 796 ft | 11 kts | 182° |
| 2026-04-17 10:33 | 50.07513 | 19.78086 | 796 ft | 10 kts | 182° |
| 2026-04-17 10:33 | 50.07471 | 19.78123 | 796 ft | 6 kts | 101° |
| 2026-04-17 10:33 | 50.07478 | 19.78188 | 796 ft | 8 kts | 77° |
| 2026-04-17 10:33 | 50.07494 | 19.78301 | 796 ft | 13 kts | 78° |
| 2026-04-17 10:34 | 50.07513 | 19.78452 | 796 ft | 15 kts | 78° |
| 2026-04-17 10:34 | 50.07538 | 19.78616 | 796 ft | 16 kts | 76° |
| 2026-04-17 10:34 | 50.07563 | 19.78784 | 796 ft | 16 kts | 77° |
| 2026-04-17 10:34 | 50.07585 | 19.78954 | 796 ft | 16 kts | 82° |
| 2026-04-17 10:35 | 50.07605 | 19.79122 | 796 ft | 12 kts | 102° |
| 2026-04-17 10:35 | 50.07531 | 19.79151 | 796 ft | 11 kts | 169° |
| 2026-04-17 10:35 | 50.07521 | 19.79199 | 796 ft | 7 kts | 81° |
| 2026-04-17 10:35 | 50.07536 | 19.79292 | 796 ft | 10 kts | 69° |
| 2026-04-17 10:36 | 50.07554 | 19.79301 | 796 ft | 1 kts | 347° |
| 2026-04-17 10:36 | 50.07570 | 19.79295 | 796 ft | 4 kts | 347° |
| 2026-04-17 10:36 | 50.07576 | 19.79293 | 796 ft | 0 kts | 347° |